ZHP weather

High Prairie Airport
High Prairie, Alberta, Canada

Public forecast

Using degrees Celsius for public forecast. Weather courtesy of forecast.io.

METAR (pilot weather report)

Closest report is Slave Lake Airport, 58.3 nm (107.9 km) E. Retrieved 2019/08/24 17:00 UTC (8 minutes ago):

CYZH 241700Z AUTO 30006KT 9SM BKN120 16/12 A2970 RMK SLP065 DENSITY ALT 2600FT

TAF (pilot weather forecast)

Closest forecast is Slave Lake Airport, 58.3 nm (107.9 km) E. Retrieved 2019/08/24 13:39 UTC (3 hours ago):

TAF CYZH 241238Z 2413/2501 VRB03KT 1/4SM FG VV002 TEMPO 2413/2416 4SM BR SCT004 FM241600 28012G22KT P6SM BKN040 OVC200 FM242000 28012KT P6SM BKN040 TEMPO 2420/2501 P6SM VCTS OVC040CB RMK FCST BASED ON AUTO OBS. NXT FCST BY 241900Z